Time;durP1;ratioP1;P1;durP2;ratioP2;P2;SDS_P1;SDS_P2;PMS_P1;PMS_P2;Temp;Humidity;BMP_temperature;BMP_pressure;BME280_temperature;BME280_humidity;BME280_pressure;Samples;Min_cycle;Max_cycle;Signal;HPM_P1;HPM_P2
2023/04/09 00:01:24;;;;;;;31.08;18.48;;;;;;;7.54;61.10;100955.28;30749190;28;96570;-64
2023/04/09 00:16:24;;;;;;;32.72;17.63;;;;;;;7.40;61.62;100953.81;30747661;28;96622;-64
2023/04/09 00:31:24;;;;;;;29.02;18.73;;;;;;;7.30;62.05;100950.28;30746759;28;98618;-64
2023/04/09 00:46:25;;;;;;;30.15;16.25;;;;;;;7.29;62.77;100948.59;30744975;28;96665;-64
2023/04/09 01:01:25;;;;;;;30.55;17.73;;;;;;;7.21;62.57;100961.66;30743700;28;96747;-64
2023/04/09 01:16:28;;;;;;;31.85;18.92;;;;;;;7.21;62.87;100962.47;30742089;28;96752;-64
2023/04/09 01:31:33;;;;;;;31.03;17.67;;;;;;;7.10;63.09;100981.94;30739846;28;96741;-64
2023/04/09 01:46:35;;;;;;;30.53;18.53;;;;;;;7.15;63.69;101004.53;30739126;28;97304;-65
2023/04/09 02:01:46;;;;;;;35.23;19.07;;;;;;;7.08;63.29;101001.56;30738055;28;97337;-64
2023/04/09 02:16:46;;;;;;;31.93;18.27;;;;;;;6.97;64.14;100997.19;30736702;28;96987;-64
2023/04/09 02:31:46;;;;;;;38.13;20.38;;;;;;;6.86;64.44;100999.84;30735331;28;97058;-64
2023/04/09 02:46:50;;;;;;;38.50;21.05;;;;;;;6.66;64.14;101009.44;30733929;28;96721;-64
2023/04/09 03:01:51;;;;;;;35.20;21.30;;;;;;;6.67;64.88;100996.09;30733102;28;97060;-64
2023/04/09 03:16:51;;;;;;;33.40;22.20;;;;;;;6.70;64.94;100995.00;30731974;28;97448;-66
2023/04/09 03:31:51;;;;;;;34.70;20.63;;;;;;;6.59;65.56;100991.41;30729981;28;96578;-64
2023/04/09 03:46:52;;;;;;;36.42;22.23;;;;;;;6.56;65.76;100999.59;30734468;28;96799;-64
2023/04/09 04:01:52;;;;;;;35.35;21.42;;;;;;;6.66;65.78;100999.69;30748670;28;96650;-64
2023/04/09 04:16:52;;;;;;;38.17;21.73;;;;;;;6.69;66.22;101012.66;30748101;28;96814;-64
2023/04/09 04:31:53;;;;;;;40.95;22.80;;;;;;;6.75;66.66;101028.06;30745276;28;96671;-64
2023/04/09 04:46:53;;;;;;;36.63;23.27;;;;;;;6.80;66.72;101016.25;30744360;28;96664;-64
2023/04/09 05:01:54;;;;;;;42.92;22.92;;;;;;;6.84;67.68;101017.69;30742603;28;96663;-64
2023/04/09 05:16:54;;;;;;;42.35;23.58;;;;;;;6.93;67.83;101035.50;30742395;28;96773;-64
2023/04/09 05:31:54;;;;;;;43.50;23.30;;;;;;;7.08;67.99;101036.88;30739582;28;96696;-64
2023/04/09 05:46:55;;;;;;;37.63;22.60;;;;;;;7.16;68.00;101045.97;30738276;28;97707;-64
2023/04/09 06:01:55;;;;;;;39.25;22.95;;;;;;;7.26;68.11;101057.53;30736183;28;96734;-64
2023/04/09 06:17:00;;;;;;;44.63;25.00;;;;;;;7.16;68.07;101053.94;30735191;28;96910;-64
2023/04/09 06:32:00;;;;;;;47.17;26.30;;;;;;;6.93;68.21;101043.44;30734423;28;96648;-64
2023/04/09 06:47:01;;;;;;;41.03;25.05;;;;;;;6.57;69.29;101038.31;30732777;28;96930;-64
2023/04/09 07:02:01;;;;;;;40.70;24.08;;;;;;;6.65;70.93;101050.94;30731981;28;97025;-64
2023/04/09 07:17:01;;;;;;;39.45;23.77;;;;;;;6.62;71.00;101063.63;30730659;28;96652;-64
2023/04/09 07:32:02;;;;;;;38.75;23.13;;;;;;;6.58;71.32;101076.25;30749959;28;97279;-64
2023/04/09 07:47:04;;;;;;;39.55;23.92;;;;;;;6.70;71.79;101064.66;30748413;28;96718;-64
2023/04/09 08:02:05;;;;;;;39.17;23.87;;;;;;;6.89;71.67;101084.34;30747561;28;96671;-64
2023/04/09 08:17:05;;;;;;;39.10;23.58;;;;;;;7.08;71.87;101092.50;30746880;28;96631;-65
2023/04/09 08:32:06;;;;;;;41.90;24.00;;;;;;;6.86;71.83;101080.19;30744844;28;96644;-64
2023/04/09 08:47:10;;;;;;;37.23;23.17;;;;;;;7.16;72.63;101085.72;30743172;28;97058;-64
2023/04/09 09:02:11;;;;;;;38.97;22.60;;;;;;;7.45;71.32;101089.47;30742588;28;96733;-64
2023/04/09 09:17:11;;;;;;;39.17;21.88;;;;;;;7.50;71.68;101091.72;30740498;28;96773;-64
2023/04/09 09:32:14;;;;;;;33.97;21.45;;;;;;;7.47;71.85;101099.13;30740511;28;97436;-64
2023/04/09 09:47:17;;;;;;;35.23;20.97;;;;;;;7.36;71.46;101092.88;30736825;28;96693;-65
2023/04/09 10:02:20;;;;;;;40.40;23.60;;;;;;;7.18;71.82;101079.34;30737309;28;96736;-65
2023/04/09 10:17:20;;;;;;;33.93;19.97;;;;;;;7.19;72.62;101073.09;30735423;28;96769;-64
2023/04/09 10:32:25;;;;;;;30.58;19.90;;;;;;;7.39;72.23;101079.38;30733571;28;97265;-63
2023/04/09 10:47:33;;;;;;;34.67;21.27;;;;;;;7.57;73.12;101076.16;30732175;28;97046;-64
2023/04/09 11:02:36;;;;;;;35.87;21.70;;;;;;;8.10;72.24;101070.72;30758661;28;96780;-64
2023/04/09 11:17:37;;;;;;;32.40;21.03;;;;;;;8.32;72.40;101074.19;30771453;28;96710;-64
2023/04/09 11:32:37;;;;;;;35.15;19.90;;;;;;;8.41;72.60;101061.94;30770608;28;96721;-64
2023/04/09 11:47:42;;;;;;;33.22;20.75;;;;;;;8.40;72.03;101060.25;30768520;28;97396;-64
2023/04/09 12:02:50;;;;;;;35.37;20.73;;;;;;;8.30;72.14;101055.72;30768383;28;97341;-64
2023/04/09 12:17:54;;;;;;;32.27;20.77;;;;;;;8.59;71.65;101067.47;30746563;28;96846;-64
2023/04/09 12:32:55;;;;;;;35.00;18.27;;;;;;;8.79;71.75;101076.31;30745901;28;96742;-64
2023/04/09 12:47:55;;;;;;;36.83;20.20;;;;;;;9.01;71.90;101069.91;30744004;28;96644;-65
2023/04/09 13:02:55;;;;;;;35.10;21.98;;;;;;;9.07;71.49;101065.88;30742353;28;96750;-64
2023/04/09 13:17:56;;;;;;;32.67;19.73;;;;;;;8.97;71.77;101063.19;30740137;28;96836;-64
2023/04/09 13:32:56;;;;;;;32.92;19.70;;;;;;;9.13;71.68;101071.47;30739581;28;111787;-64
2023/04/09 13:47:57;;;;;;;37.10;21.88;;;;;;;9.26;71.51;101063.19;30737643;28;106767;-64
2023/04/09 14:02:57;;;;;;;35.55;21.08;;;;;;;9.23;71.35;101060.81;30736898;28;96654;-64
2023/04/09 14:17:58;;;;;;;34.65;21.73;;;;;;;9.12;71.41;101061.81;30734792;28;96660;-64
2023/04/09 14:32:58;;;;;;;37.58;21.23;;;;;;;9.08;71.57;101055.09;30733083;28;116060;-64
2023/04/09 14:47:59;;;;;;;33.63;21.83;;;;;;;9.01;71.96;101056.63;30732897;28;97018;-64
2023/04/09 15:02:59;;;;;;;36.70;22.75;;;;;;;8.88;72.20;101042.75;30732316;28;96650;-64
2023/04/09 15:18:04;;;;;;;38.33;23.42;;;;;;;8.75;72.70;101054.50;30730541;28;97279;-64
2023/04/09 15:33:05;;;;;;;40.20;24.83;;;;;;;8.67;72.84;101050.84;30729013;28;96925;-64
2023/04/09 15:48:05;;;;;;;43.25;26.65;;;;;;;8.32;73.79;101036.19;30740404;28;97481;-66
2023/04/09 16:03:05;;;;;;;39.45;23.50;;;;;;;8.35;74.16;101036.75;30748227;28;96863;-64
2023/04/09 16:18:06;;;;;;;37.92;23.52;;;;;;;8.26;74.52;101030.44;30746795;28;97880;-64
2023/04/09 16:33:09;;;;;;;48.50;25.83;;;;;;;8.22;74.88;101026.38;30746329;28;96786;-64
2023/04/09 16:48:10;;;;;;;42.60;24.73;;;;;;;8.08;74.92;101032.06;30743659;28;96744;-63
2023/04/09 17:03:11;;;;;;;37.77;23.20;;;;;;;7.99;75.42;101041.63;30742963;28;96677;-64
2023/04/09 17:18:11;;;;;;;46.15;25.17;;;;;;;7.83;75.57;101054.53;30741655;28;96703;-64
2023/04/09 17:33:12;;;;;;;49.90;26.00;;;;;;;7.64;75.63;101058.78;30739894;28;108312;-64
2023/04/09 17:48:12;;;;;;;40.60;23.45;;;;;;;7.47;76.02;101067.31;30737841;28;96757;-64
2023/04/09 18:03:13;;;;;;;42.53;22.40;;;;;;;7.35;77.21;101069.97;30736804;28;97269;-64
2023/04/09 18:18:13;;;;;;;43.13;24.45;;;;;;;7.27;76.79;101070.63;30735445;28;96656;-64
2023/04/09 18:33:13;;;;;;;41.65;24.73;;;;;;;7.21;77.53;101088.84;30733929;28;107433;-64
2023/04/09 18:48:14;;;;;;;54.45;27.85;;;;;;;7.13;77.99;101096.59;30733749;28;96768;-64
2023/04/09 19:03:15;;;;;;;44.25;25.98;;;;;;;7.16;78.42;101113.06;30732357;28;96669;-64
2023/04/09 19:18:17;;;;;;;46.83;27.03;;;;;;;7.16;78.46;101117.53;30736268;28;96700;-64
2023/04/09 19:33:21;;;;;;;44.43;26.10;;;;;;;7.26;78.28;101119.31;30750768;28;97444;-63
2023/04/09 19:48:22;;;;;;;40.33;23.47;;;;;;;7.42;79.30;101124.19;30747821;28;96866;-64
2023/04/09 20:03:23;;;;;;;40.33;24.58;;;;;;;7.47;78.45;101131.75;30746846;28;96703;-64
2023/04/09 20:18:23;;;;;;;41.63;23.05;;;;;;;7.51;79.00;101137.66;30745406;28;97364;-64
2023/04/09 20:33:24;;;;;;;41.72;24.30;;;;;;;7.31;78.55;101131.34;30738387;28;96590;-65
2023/04/09 20:48:24;;;;;;;48.40;27.00;;;;;;;7.14;78.85;101130.09;30700618;28;96760;-63
2023/04/09 21:03:25;;;;;;;51.25;28.23;;;;;;;7.02;79.54;101135.38;30621198;28;96787;-63
2023/04/09 21:18:25;;;;;;;46.85;25.75;;;;;;;7.01;79.65;101128.44;30620769;28;96649;-63
2023/04/09 21:33:26;;;;;;;50.13;28.13;;;;;;;6.92;79.35;101121.22;30619673;28;96969;-63
2023/04/09 21:48:27;;;;;;;49.03;26.25;;;;;;;6.99;79.74;101127.69;30617546;28;97123;-63
2023/04/09 22:03:28;;;;;;;48.80;27.33;;;;;;;7.00;80.33;101134.69;30617431;28;97052;-63
2023/04/09 22:18:28;;;;;;;43.65;25.90;;;;;;;6.84;80.05;101126.28;30615855;28;97361;-63
2023/04/09 22:33:29;;;;;;;45.55;27.35;;;;;;;6.61;79.94;101123.66;30614760;28;97408;-62
2023/04/09 22:48:29;;;;;;;57.80;33.40;;;;;;;6.38;80.30;101118.38;30613495;28;96829;-63
2023/04/09 23:03:30;;;;;;;53.45;29.83;;;;;;;6.30;80.50;101125.22;30612488;28;96955;-62
2023/04/09 23:18:30;;;;;;;51.70;29.98;;;;;;;6.11;80.83;101116.06;30611096;28;96771;-63
2023/04/09 23:33:31;;;;;;;52.75;28.52;;;;;;;6.13;80.76;101114.13;30610407;28;97091;-63
2023/04/09 23:48:31;;;;;;;60.25;31.55;;;;;;;6.07;80.77;101115.47;30609238;28;96821;-63
